Time;durP1;ratioP1;P1;durP2;ratioP2;P2;SDS_P1;SDS_P2;PMS_P1;PMS_P2;Temp;Humidity;BMP_temperature;BMP_pressure;BME280_temperature;BME280_humidity;BME280_pressure;Samples;Min_cycle;Max_cycle;Signal;HPM_P1;HPM_P2
2022/12/21 06:32:13;;;;;;;29.00;19.42;;;;;;;2.00;80.31;100135.81;1683770;82;1915283;-76
2022/12/21 06:34:40;;;;;;;32.50;22.15;;;;;;;2.10;79.60;100143.50;1671544;85;21867;-76
2022/12/21 06:37:07;;;;;;;32.17;22.37;;;;;;;2.12;79.22;100136.16;1678803;84;22081;-75
2022/12/21 06:39:33;;;;;;;28.57;20.35;;;;;;;2.22;79.22;100143.84;1675915;85;21372;-78
2022/12/21 06:41:59;;;;;;;26.23;19.73;;;;;;;2.27;78.55;100137.47;1680257;85;21064;-75
2022/12/21 06:44:28;;;;;;;30.85;20.23;;;;;;;2.28;78.45;100139.95;1679855;85;20966;-74
2022/12/21 06:46:54;;;;;;;31.60;21.57;;;;;;;2.31;78.01;100138.74;1679926;83;21058;-75
2022/12/21 06:49:20;;;;;;;31.93;21.23;;;;;;;2.32;77.99;100127.95;1679745;85;21162;-75
2022/12/21 06:51:47;;;;;;;29.50;21.75;;;;;;;2.36;77.93;100134.53;1679994;85;21477;-76
2022/12/21 06:54:14;;;;;;;32.98;20.85;;;;;;;2.42;77.97;100130.31;1680031;85;20944;-76
2022/12/21 06:56:40;;;;;;;32.10;20.00;;;;;;;2.45;77.63;100131.26;1680237;85;21051;-76
2022/12/21 06:59:07;;;;;;;24.90;19.60;;;;;;;2.46;77.21;100133.73;1680112;85;21613;-80
2022/12/21 07:01:34;;;;;;;30.75;22.22;;;;;;;2.45;76.93;100125.95;1680061;85;22639;-80
2022/12/21 07:04:01;;;;;;;28.67;20.25;;;;;;;2.48;76.84;100126.42;1679810;85;21083;-78
2022/12/21 07:06:29;;;;;;;34.08;21.02;;;;;;;2.54;76.58;100130.16;1679789;84;21483;-81
2022/12/21 07:08:56;;;;;;;31.87;21.65;;;;;;;2.53;76.07;100149.25;1680216;85;21756;-78
2022/12/21 07:11:25;;;;;;;25.95;17.12;;;;;;;2.53;76.07;100149.25;1680150;85;21052;-80
2022/12/21 07:13:56;;;;;;;31.00;20.45;;;;;;;2.52;75.51;100158.22;1680410;85;21113;-80
2022/12/21 07:16:21;;;;;;;31.65;23.22;;;;;;;2.48;75.64;100162.26;1679351;85;22023;-83
2022/12/21 07:18:49;;;;;;;32.38;20.02;;;;;;;2.48;75.64;100162.26;1680566;85;21133;-83
2022/12/21 07:21:17;;;;;;;34.13;21.40;;;;;;;2.48;75.81;100168.07;1687067;82;21060;-79
2022/12/21 07:23:44;;;;;;;28.70;21.02;;;;;;;2.46;75.69;100161.61;1709486;83;21103;-81
2022/12/21 07:26:16;;;;;;;31.70;20.23;;;;;;;2.47;76.04;100166.41;1709043;84;21692;-76
2022/12/21 07:28:47;;;;;;;36.65;22.60;;;;;;;2.49;76.09;100165.73;1707586;83;21026;-79
2022/12/21 07:31:20;;;;;;;32.63;21.85;;;;;;;2.50;76.16;100164.70;1696171;83;21054;-79
2022/12/21 07:33:47;;;;;;;36.38;22.65;;;;;;;2.53;76.10;100166.50;1674310;83;28196;-78
2022/12/21 07:36:14;;;;;;;28.20;19.45;;;;;;;2.58;76.10;100166.77;1677232;83;21072;-83
2022/12/21 07:38:41;;;;;;;31.60;20.05;;;;;;;2.58;75.73;100166.77;1674304;85;21834;-78
2022/12/21 07:41:10;;;;;;;36.68;21.37;;;;;;;2.59;75.39;100163.08;1684828;85;21027;-78
2022/12/21 07:43:37;;;;;;;45.52;22.70;;;;;;;2.65;75.62;100166.83;1689511;82;21059;-76
2022/12/21 07:46:14;;;;;;;30.05;20.52;;;;;;;2.68;75.24;100162.99;1673157;85;21048;-77
2022/12/21 07:48:40;;;;;;;33.02;21.70;;;;;;;2.72;75.26;100163.76;1675271;83;21092;-81
2022/12/21 07:51:07;;;;;;;33.40;21.75;;;;;;;2.75;75.21;100159.39;1702366;84;21267;-80
2022/12/21 07:53:34;;;;;;;25.08;18.10;;;;;;;2.81;74.92;100155.98;1701881;82;21042;-82
2022/12/21 07:56:12;;;;;;;31.07;20.43;;;;;;;2.86;74.84;100153.59;1663467;83;21323;-80
2022/12/21 07:58:39;;;;;;;31.95;21.57;;;;;;;2.87;74.64;100157.91;1692603;84;21107;-81
2022/12/21 08:01:09;;;;;;;27.98;21.00;;;;;;;2.88;74.60;100164.01;1702710;84;21016;-76
2022/12/21 08:03:36;;;;;;;27.58;20.85;;;;;;;2.90;74.33;100169.47;1703321;82;22036;-77
2022/12/21 08:06:04;;;;;;;34.55;22.55;;;;;;;2.90;74.33;100169.47;1728491;82;21060;-79
2022/12/21 08:08:31;;;;;;;28.70;20.20;;;;;;;2.94;74.45;100166.74;1685176;84;20984;-77
2022/12/21 08:10:57;;;;;;;33.58;21.27;;;;;;;3.00;74.33;100175.80;1690811;82;21104;-76
2022/12/21 08:13:24;;;;;;;37.83;25.17;;;;;;;3.06;74.00;100164.42;1685522;82;21080;-80
2022/12/21 08:16:03;;;;;;;37.48;24.95;;;;;;;3.03;73.70;100172.75;1700312;84;21551;-74
2022/12/21 08:18:30;;;;;;;38.33;25.80;;;;;;;3.04;73.85;100160.61;1700370;82;21581;-86
2022/12/21 08:20:58;;;;;;;32.88;24.05;;;;;;;3.08;73.47;100157.89;1700595;84;20977;-86
2022/12/21 08:23:26;;;;;;;42.85;27.58;;;;;;;3.03;73.43;100148.34;1699952;82;21076;-84
2022/12/21 08:25:54;;;;;;;40.35;28.42;;;;;;;3.00;73.46;100152.71;1700618;84;21007;-86
2022/12/21 08:28:22;;;;;;;45.15;27.05;;;;;;;3.02;73.73;100146.69;1678755;84;21241;-88
2022/12/21 08:30:49;;;;;;;37.55;24.80;;;;;;;3.08;73.55;100145.11;1702797;83;20972;-85
2022/12/21 08:33:16;;;;;;;30.95;22.73;;;;;;;3.13;73.25;100144.03;1681451;84;21032;-82
2022/12/21 08:35:43;;;;;;;41.08;26.33;;;;;;;3.16;72.95;100139.69;1683528;82;21058;-76
2022/12/21 08:38:10;;;;;;;40.20;24.98;;;;;;;3.16;72.72;100137.03;1680817;85;21094;-77
2022/12/21 08:40:36;;;;;;;40.73;27.25;;;;;;;3.16;72.82;100131.71;1703930;83;21815;-75
2022/12/21 08:43:04;;;;;;;38.88;24.82;;;;;;;3.20;72.84;100129.48;1715788;82;21039;-75
2022/12/21 08:45:32;;;;;;;44.95;28.67;;;;;;;3.22;72.52;100122.95;1705322;82;21073;-82
2022/12/21 08:47:58;;;;;;;36.05;23.80;;;;;;;3.16;72.53;100121.08;1706855;83;21034;-85
2022/12/21 08:50:29;;;;;;;38.95;26.23;;;;;;;3.19;72.58;100126.51;1696240;84;21106;-89
2022/12/21 08:52:56;;;;;;;38.35;25.37;;;;;;;3.22;72.31;100127.44;1676580;85;21298;-73
2022/12/21 08:55:22;;;;;;;34.13;23.02;;;;;;;3.25;72.51;100130.56;1700103;82;21046;-73
2022/12/21 08:57:49;;;;;;;44.10;27.85;;;;;;;3.29;72.28;100127.83;1708699;83;20977;-74
2022/12/21 09:00:16;;;;;;;40.88;26.15;;;;;;;3.32;72.05;100126.11;1707918;82;21044;-73
2022/12/21 09:02:42;;;;;;;42.27;28.17;;;;;;;3.33;71.87;100119.78;1681347;85;21063;-84
2022/12/21 09:05:10;;;;;;;35.25;24.87;;;;;;;3.38;71.95;100120.53;1706258;82;22473;-87
2022/12/21 09:07:36;;;;;;;31.37;22.77;;;;;;;3.44;71.83;100118.44;1709625;83;21093;-85
2022/12/21 09:10:03;;;;;;;39.63;25.55;;;;;;;3.48;71.77;100113.05;1678143;83;20975;-89
2022/12/21 09:12:30;;;;;;;38.23;26.10;;;;;;;3.52;71.48;100116.95;1708283;83;21571;-88
2022/12/21 09:14:57;;;;;;;40.48;27.48;;;;;;;3.53;71.58;100118.61;1722745;82;21052;-84
2022/12/21 09:17:23;;;;;;;47.45;28.07;;;;;;;3.58;71.78;100117.52;1708921;82;21007;-82
2022/12/21 09:19:50;;;;;;;40.23;29.10;;;;;;;3.67;71.60;100116.34;1683249;83;20948;-82
2022/12/21 09:22:17;;;;;;;43.10;29.25;;;;;;;3.74;71.10;100112.41;1707752;83;20974;-86
2022/12/21 09:24:44;;;;;;;38.80;26.87;;;;;;;3.75;70.56;100121.51;1708695;82;21059;-86
2022/12/21 09:27:14;;;;;;;45.90;26.23;;;;;;;3.77;70.21;100115.50;1709789;82;21034;-82
2022/12/21 09:29:42;;;;;;;36.55;24.82;;;;;;;3.78;69.95;100118.48;1699871;84;21072;-83
2022/12/21 09:32:08;;;;;;;40.15;27.80;;;;;;;3.79;69.47;100121.96;1700123;82;21023;-85
2022/12/21 09:34:35;;;;;;;39.45;25.95;;;;;;;3.77;69.32;100115.50;1686835;82;21024;-83
2022/12/21 09:37:03;;;;;;;35.68;24.67;;;;;;;3.76;69.16;100113.84;1732187;81;21062;-81
2022/12/21 09:39:30;;;;;;;39.73;25.10;;;;;;;3.77;69.10;100118.16;1756527;81;21078;-89
2022/12/21 09:42:33;;;;;;;39.58;28.20;;;;;;;3.78;68.88;100114.48;1757709;81;21203;-86
2022/12/21 10:06:39;;;;;;;42.48;27.90;;;;;;;5.30;64.03;100078.44;1756203;81;26095;-74
2022/12/21 10:09:45;;;;;;;38.40;27.25;;;;;;;5.41;62.83;100073.81;1754283;79;20971;-80
2022/12/21 10:12:32;;;;;;;45.30;28.80;;;;;;;5.50;61.87;100075.75;1731292;82;21230;-80
2022/12/21 10:15:35;;;;;;;41.42;26.97;;;;;;;5.51;61.59;100075.55;1740214;81;21026;-74
2022/12/21 10:18:21;;;;;;;40.12;28.27;;;;;;;5.49;61.15;100076.77;1744465;81;21627;-78
2022/12/21 18:56:54;;;;;;;49.03;31.60;;;;;;;2.81;75.34;99821.34;1750248;80;28083;-86
2022/12/21 18:59:29;;;;;;;56.70;30.25;;;;;;;2.89;75.11;99825.15;1732860;82;20999;-88
2022/12/21 19:01:58;;;;;;;58.10;33.33;;;;;;;3.00;74.59;99824.59;1732335;82;21167;-77
2022/12/21 19:04:28;;;;;;;45.28;29.65;;;;;;;3.02;74.25;99823.08;1734404;82;20908;-78
2022/12/21 19:06:55;;;;;;;47.83;29.82;;;;;;;3.07;74.07;99820.63;1709204;82;20971;-80
2022/12/21 19:09:22;;;;;;;51.13;31.82;;;;;;;3.09;73.91;99826.57;1713716;82;20980;-78
2022/12/21 19:11:50;;;;;;;58.33;34.78;;;;;;;3.08;73.79;99826.25;1708989;82;21034;-77
2022/12/21 19:14:21;;;;;;;46.37;32.10;;;;;;;3.06;73.73;99821.16;1682871;84;21339;-77
2022/12/21 19:16:50;;;;;;;43.80;28.73;;;;;;;3.06;73.81;99819.01;1687658;84;21556;-75
2022/12/21 19:19:22;;;;;;;46.28;32.00;;;;;;;3.04;73.89;99812.55;1707584;83;21010;-77
2022/12/21 19:22:04;;;;;;;52.00;31.40;;;;;;;3.04;73.89;99821.03;1720182;82;21003;-79
2022/12/21 19:24:36;;;;;;;57.88;36.10;;;;;;;3.00;73.96;99827.25;1735321;82;21098;-80
2022/12/21 19:27:11;;;;;;;45.38;29.23;;;;;;;2.99;73.98;99828.77;1712270;82;21544;-83
2022/12/21 19:29:38;;;;;;;;;;;;;;;2.97;74.07;99829.50;1696618;83;21550;-84
2022/12/21 19:32:05;;;;;;;42.25;28.87;;;;;;;2.95;74.18;99827.53;1705686;82;20091;-85
2022/12/21 19:34:32;;;;;;;47.90;28.95;;;;;;;2.92;74.36;99831.41;1703845;82;21611;-85
2022/12/21 19:37:00;;;;;;;38.00;26.42;;;;;;;2.89;74.44;99824.33;1732052;82;21047;-82
2022/12/21 19:39:41;;;;;;;43.25;28.17;;;;;;;2.87;74.56;99828.53;1730129;82;21312;-86
2022/12/21 19:42:16;;;;;;;39.75;27.95;;;;;;;2.87;74.64;99819.73;1712060;82;21061;-87
2022/12/21 19:44:42;;;;;;;38.13;26.80;;;;;;;2.89;74.72;99815.03;1703730;84;20932;-91
2022/12/21 19:47:17;;;;;;;42.00;26.52;;;;;;;2.88;74.83;99816.04;1690590;84;21042;-91
2022/12/21 19:49:45;;;;;;;40.20;25.23;;;;;;;2.84;74.87;99818.78;1693418;84;21583;-88
2022/12/21 19:52:14;;;;;;;34.35;24.87;;;;;;;2.84;74.89;99828.90;1689087;82;21809;-85
2022/12/21 19:54:41;;;;;;;30.12;20.95;;;;;;;2.84;74.89;99828.90;1714260;82;21046;-84
2022/12/21 19:57:35;;;;;;;36.25;25.12;;;;;;;2.80;74.92;99824.17;1719690;81;21500;-80
2022/12/21 20:00:05;;;;;;;39.67;23.30;;;;;;;2.80;75.07;99828.16;1707507;83;21034;-82
2022/12/21 20:02:36;;;;;;;42.70;27.58;;;;;;;2.77;75.33;99832.05;1669640;82;21018;-81
2022/12/21 20:05:04;;;;;;;33.55;24.02;;;;;;;2.77;75.33;99832.05;1699065;84;21068;-83
2022/12/21 20:07:31;;;;;;;47.95;27.42;;;;;;;2.80;75.37;99834.30;1657143;82;21148;-81
2022/12/21 20:09:58;;;;;;;36.98;23.35;;;;;;;2.82;75.47;99834.11;1705296;82;20916;-82
2022/12/21 20:12:24;;;;;;;41.15;26.33;;;;;;;2.80;75.47;99834.80;1709122;83;21047;-82
2022/12/21 20:14:52;;;;;;;44.42;27.90;;;;;;;2.81;75.61;99829.30;1675531;84;21050;-81
2022/12/21 20:17:22;;;;;;;41.95;25.32;;;;;;;2.82;75.70;99830.95;1688307;84;21216;-86
2022/12/21 20:19:53;;;;;;;44.88;26.17;;;;;;;2.80;75.74;99829.49;1723759;82;21050;-85
2022/12/21 20:22:20;;;;;;;44.23;28.17;;;;;;;2.79;75.91;99822.53;1728618;83;21069;-83
2022/12/21 20:24:47;;;;;;;41.18;27.60;;;;;;;2.77;76.08;99821.42;1713388;82;21058;-85
2022/12/21 20:27:36;;;;;;;34.20;23.83;;;;;;;2.77;76.17;99820.09;1740639;82;21007;-87
2022/12/21 20:30:05;;;;;;;42.35;27.40;;;;;;;2.77;76.25;99812.13;1711275;82;21078;-83
2022/12/21 20:32:32;;;;;;;38.28;26.60;;;;;;;2.76;76.37;99808.33;1690544;84;21643;-85
2022/12/21 20:34:59;;;;;;;38.13;24.80;;;;;;;2.77;76.56;99819.27;1704826;83;20995;-86
2022/12/21 20:37:27;;;;;;;38.88;26.42;;;;;;;2.76;76.75;99817.63;1729949;82;21020;-84
2022/12/21 20:39:59;;;;;;;44.38;28.67;;;;;;;2.76;76.75;99817.63;1735117;82;20956;-85
2022/12/21 20:45:23;;;;;;;40.50;28.12;;;;;;;2.77;76.92;99807.32;1734142;82;21070;-83
2022/12/21 20:47:51;;;;;;;36.60;26.15;;;;;;;2.75;77.19;99812.00;1716895;82;21175;-84
2022/12/21 20:50:21;;;;;;;41.63;28.38;;;;;;;2.75;77.19;99812.00;1713518;83;21012;-81
2022/12/21 20:52:48;;;;;;;47.70;30.37;;;;;;;2.72;77.33;99809.23;1683619;84;21526;-79
2022/12/21 20:58:02;;;;;;;40.63;27.77;;;;;;;2.72;77.56;99795.96;1658370;82;22055;-74
2022/12/21 21:00:28;;;;;;;43.52;28.55;;;;;;;2.70;77.69;99790.02;1679305;83;21522;-82
2022/12/21 21:02:55;;;;;;;37.60;25.10;;;;;;;2.69;77.82;99788.88;1680191;84;21072;-83
2022/12/21 21:05:26;;;;;;;34.88;24.27;;;;;;;2.68;78.00;99796.55;1720541;81;21498;-89
2022/12/21 21:07:54;;;;;;;41.55;27.25;;;;;;;2.67;78.01;99791.75;1716207;82;21761;-84
2022/12/21 21:10:21;;;;;;;44.73;30.02;;;;;;;2.66;78.23;99791.94;1699186;84;21003;-88
2022/12/21 21:12:47;;;;;;;44.58;29.00;;;;;;;2.66;78.23;99791.94;1713614;83;20986;-77
2022/12/21 21:15:17;;;;;;;42.03;24.85;;;;;;;2.64;78.34;99794.27;1675500;84;21002;-80
2022/12/21 21:17:43;;;;;;;36.80;26.33;;;;;;;2.62;78.43;99792.84;1720619;82;21047;-88
2022/12/21 21:23:07;;;;;;;47.27;29.82;;;;;;;2.61;78.64;99799.98;1603018;84;21574;-83
2022/12/21 21:25:41;;;;;;;47.13;31.93;;;;;;;2.60;78.73;99782.41;1691358;83;21040;-84
2022/12/21 21:28:25;;;;;;;45.48;29.75;;;;;;;2.63;78.77;99784.69;1709633;83;21035;-81
2022/12/21 21:30:57;;;;;;;41.73;29.60;;;;;;;2.64;78.79;99781.50;1707494;82;21046;-84
2022/12/21 21:33:26;;;;;;;;;;;;;;;2.65;78.74;99780.48;1748333;81;21898;-87
2022/12/21 21:35:57;;;;;;;44.45;28.85;;;;;;;2.63;78.87;99766.11;1726929;81;20188;-82
2022/12/21 21:41:35;;;;;;;;;;;;;;;2.59;78.96;99771.47;1685882;83;21072;-85
2022/12/21 21:44:26;;;;;;;46.28;27.82;;;;;;;2.59;79.06;99764.04;1691290;83;20509;-82
2022/12/21 21:46:55;;;;;;;41.35;28.98;;;;;;;2.58;79.08;99767.20;1682873;83;22440;-80
2022/12/21 21:49:26;;;;;;;42.78;28.70;;;;;;;2.58;79.28;99765.88;1702515;81;21102;-82
2022/12/21 21:51:52;;;;;;;50.35;28.45;;;;;;;2.58;79.28;99765.88;1684711;83;21972;-87
2022/12/21 21:54:22;;;;;;;48.90;29.95;;;;;;;2.56;79.26;99761.25;1722249;82;21045;-88
2022/12/21 21:56:55;;;;;;;43.65;30.72;;;;;;;2.57;79.36;99758.09;1686987;84;21056;-90
2022/12/21 21:59:30;;;;;;;40.63;27.87;;;;;;;2.55;79.44;99755.63;1711278;82;21624;-85
2022/12/21 22:02:30;;;;;;;46.08;30.27;;;;;;;2.56;79.49;99753.80;1705613;82;20980;-84
2022/12/21 22:04:58;;;;;;;45.17;31.57;;;;;;;2.56;79.57;99761.25;1714292;83;21323;-79
2022/12/21 22:07:25;;;;;;;50.30;32.30;;;;;;;2.53;79.54;99742.25;1711067;83;21011;-82
2022/12/21 22:12:40;;;;;;;45.83;30.65;;;;;;;2.53;79.82;99755.53;1686511;84;21234;-75
2022/12/21 22:15:17;;;;;;;50.45;28.30;;;;;;;2.52;79.79;99756.03;1726813;81;21061;-73
2022/12/21 22:17:45;;;;;;;46.48;32.38;;;;;;;2.48;79.86;99752.13;1698599;83;20994;-73
2022/12/21 22:42:26;;;;;;;44.67;28.55;;;;;;;2.42;80.47;99731.67;1703172;82;21037;-78
2022/12/21 22:42:33;;;;;;;43.45;27.40;;;;;;;2.40;80.55;99728.92;1670897;84;21011;-84
2022/12/21 22:45:11;;;;;;;46.42;27.90;;;;;;;2.38;80.70;99724.30;1682453;84;20991;-81
2022/12/21 22:47:37;;;;;;;39.70;27.02;;;;;;;2.35;80.75;99721.52;1690188;82;21048;-85
2022/12/21 22:50:07;;;;;;;42.88;27.52;;;;;;;2.35;80.84;99722.05;1724915;82;21078;-83
2022/12/21 22:52:35;;;;;;;36.85;25.23;;;;;;;2.36;80.94;99716.53;1688682;82;21054;-80
2022/12/21 22:55:03;;;;;;;41.63;25.67;;;;;;;2.39;80.94;99710.02;1714925;82;21074;-85
2022/12/21 22:57:33;;;;;;;38.95;24.85;;;;;;;2.40;80.87;99711.13;1749167;81;21019;-77
2022/12/21 23:00:01;;;;;;;44.23;27.62;;;;;;;2.43;80.88;99708.61;1736018;81;21008;-83
2022/12/21 23:02:27;;;;;;;37.23;26.30;;;;;;;2.44;80.81;99710.26;1718699;82;21080;-87
2022/12/21 23:04:54;;;;;;;34.92;24.43;;;;;;;2.44;80.76;99705.77;1714641;82;21773;-81
2022/12/21 23:07:20;;;;;;;42.70;25.60;;;;;;;2.46;80.76;99713.02;1732332;82;21039;-79
2022/12/21 23:09:47;;;;;;;41.70;24.92;;;;;;;2.45;80.70;99712.69;1706698;81;20962;-78
2022/12/21 23:14:58;;;;;;;42.20;26.30;;;;;;;2.42;80.78;99697.68;1694686;84;21605;-83
2022/12/21 23:20:21;;;;;;;42.10;26.50;;;;;;;2.38;80.91;99699.09;1719586;82;21061;-82
2022/12/21 23:28:37;;;;;;;43.25;27.93;;;;;;;2.36;81.18;99686.01;1716395;83;21065;-78
2022/12/21 23:45:24;;;;;;;49.60;27.87;;;;;;;2.29;81.58;99696.30;1700326;83;21276;-78
